San Angelo, Texas
Current Conditions -  °F | °C
As of 1:13 AM on Saturday 20 Dec 2014 (Local Time) from KSJT Reporting Station
Broken Clouds Broken Clouds  
Wind Chill: 38°   Ceiling: 1800
Heat Index: 38°   Visibility: 10mi
Dew Point: 35°   Wind: 0mph
Humidity: 89%   Direction: NA
Pressure: 30.17"   Gusts: NA
Location:  31.46°N, 100.44°W
Report Text: KSJT 200713Z AUTO 00000KT 10SM BKN018 03/02 A3017 RMK AO2 T00330017
Loading
Personal Weather Stations






























Interactive Weather Map New forecast layout! Learn more

10-Day Weather Forecast

Advertisements
Track Severe Weather on mobile